CheckWX is a tool to help pilots better visualize weather data.  It is not intended as a substitute for an official pre-flight weather briefing.

15:48:45 UTC

KSRC METAR
Searcy Municipal Airport
Searcy, Arkansas, USA
Current

53 mins ago

KSRC 051456Z AUTO VRB04KT 10SM CLR 16/11 A3014 RMK AO2 SLP204 T01560106 51012
Observed
Apr-5 @ 14:56 UTC
Wind
  • Variable at 4 KTS
Visibility
Flight Rules
VFR
Cloud Levels
  • Clear skies
Temperature
16°C / 61°F
Dewpoint
11°C / 52°F
Humidity
72%
Altimeter
30.14" Hg
Pressure
1020.62 hPa
Previous

2 hours ago

KSRC 051356Z AUTO 06004KT 10SM CLR 13/09 A3013 RMK AO2 SLP203 T01330094
Observed
Apr-5 @ 13:56 UTC
Wind
  • 060° at 4 KTS
Visibility
Flight Rules
VFR
Cloud Levels
  • Clear skies
Temperature
13°C / 55°F
Dewpoint
C / 48°F
Humidity
77%
Altimeter
30.13" Hg
Pressure
1020.32 hPa
Previous

3 hours ago

KSRC 051256Z AUTO 05004KT 10SM CLR 12/09 A3013 RMK AO2 SLP202 T01170089
Observed
Apr-5 @ 12:56 UTC
Wind
  • 050° at 4 KTS
Visibility
Flight Rules
VFR
Cloud Levels
  • Clear skies
Temperature
12°C / 54°F
Dewpoint
C / 48°F
Humidity
82%
Altimeter
30.13" Hg
Pressure
1020.32 hPa